home | artists | genres | years | calendar | countries | playbacks | last played

Records of library music

overviewpopular tracks

Artist Record Year Power Played Added Last Played
Alexis Le-Tan & Jess Space Oddities. Rare European Library Grooves (1975-1984) 1984 3.1 95 2008-07-25 2009-12-26
Camille Sauvage Fantasmagories 1976 0.0 0 2008-07-30 Never
Cecil Leuter & Georges Teperino TV Music 104 0 0.0 1 2008-07-30 2008-07-30
Cecil Leuter & Peter Bonello Electronic Tricks 0 0.0 0 2008-07-30 Never
Cecil Leuter Les Sons Électroniques 1971 0.0 0 2008-07-30 Never
Claude Larson Materials - Dynamic Meditations Vol.2 1982 0.0 0 2008-07-30 Never
Eberhard Schoener Destruction Of Harmony 1971 0.0 0 2008-07-30 Never
Giampiero Boneschi A New Voice 0 0.0 0 2008-07-30 Never
Jean-Jacques Perrey Musique Electronique Du Cosmos 1962 0.0 0 2008-07-30 Never
Mother Mallard's Portable Masterpiece Company 1970-1973 1973 0.0 0 2008-08-07 Never
Paul Piot Chœurs 1972 0.0 1 2008-08-07 2008-08-23
Ralph Carmichael The Electric Symphony 1970 1.0 11 2008-08-07 2009-10-29
Roger Davy & Albert Assayag Régénération 1979 0.0 3 2008-08-07 2008-09-17
Roger Roger & Nino Nardini Roger's New Conception - Informatic 2000 1982 2.0 8 2008-08-07 2011-10-05
Roger Roger Sounds Industrial 0 0.0 2 2008-08-07 2008-09-17
Syrinx Syrinx 1970 0.0 2 2008-08-07 2008-09-17
Teddy Lasry E=MC² 1976 0.0 0 2008-08-07 Never
Teddy Lasry Seven Stones 1979 0.0 0 2008-08-07 Never
Teddy Lasry Selected Tracks From His Patchwork Releases 0 0.0 0 2008-08-07 Never
various Orchestral Kaleidoscope 1968 0.0 1 2008-08-07 2008-09-17
various Theme Suites II - Viewpoints In Orchestral Dynamics 1968 0.0 1 2008-08-07 2008-09-17
Vladimir Cosma Musiques Pour Films Publicitaires 1971 1.0 14 2008-08-10 2009-02-19
Ose Adonia 1978 0.0 5 2008-08-19 2008-09-16
Patric Vian Bruits Et Temps Analogues 1976 0.0 0 2008-08-19 Never
various Great Expectations 1974 0.0 1 2008-08-19 2008-09-18
various Musique Dramatique 1974 1.0 4 2008-08-19 2011-12-19
Vladimir Cosma Insolite & Co 1969 0.0 9 2008-08-19 2008-09-18
BBC Radiophonic Workshop Doctor Who - Volume 1 - The Early Years (1963-1969) 1969 3.0 14 2008-08-19 2021-03-02
BBC Radiophonic Workshop Doctor Who - The Music 1983 0.0 2 2008-08-19 2008-08-01
Eric Swan & Eddie Warner 100% Electronic 1971 0.0 2 2008-08-19 2008-09-22
Mike Sammes Music For Biscuits 2006 0.0 5 2008-08-19 2008-09-22
Moon Birds Cosmos No. 1 1977 1.0 10 2008-08-19 2010-01-04
various Metropolis 1975 0.0 0 2008-08-19 Never
Bernard Estardy La Formule Du Baron 1967 0.0 1 2008-09-14 2008-09-23
Egisto Macchi Bioritmi 1979 0.0 0 2008-09-14 Never
Egisto Macchi Futurissimo 1979 0.0 0 2008-09-14 Never
Geoff & Trevor Bastow Double Exposure 1976 0.0 0 2008-09-14 Never
Giampiero Boneschi Sounds Electronic 1973 0.0 0 2008-09-14 Never
Geoff & Trevor Bastow The Video Age 1980 0.0 1 2008-09-14 2008-09-23
BBC Radiophonic Workshop BBC Radiophonic Music 1971 5.1 17 2008-10-09 2012-10-24
Keith Mansfield Olympiad 2000 1977 0.0 1 2008-10-09 2008-10-12
Nino Nardini Nature Nocturne 1976 1.0 8 2008-10-09 2008-12-09
various Fresh Approach 1978 0.1 15 2008-10-09 2008-11-15
various Contemporary Motion 1979 0.0 0 2008-10-09 Never
various Market Leaders 1983 0.0 4 2008-10-09 2008-10-13
various Give Peas A Chance - 21 Obscure Hits & Jazzy Gems 2002 0.0 2 2008-10-09 2008-10-13
various Patchwork Orchestra - Children And Games 0 0.0 1 2008-10-09 2008-10-13
Ennio Morricone Controfase 1972 0.0 0 2008-10-24 Never
Tony Luis Dupont Corporation - Qiana The Four Elements 1969 0.0 0 2008-10-24 Never
various Ad Version Therapy 1977 0.0 0 2008-10-24 Never
various Ad Version Therapy Vol. 02 1978 0.0 0 2008-10-24 Never
various Dance & Mood Music Vol. 04 0 0.0 0 2008-10-24 Never
various Mood Music Vol. 08 0 0.0 0 2008-10-24 Never
Andy Clark The Next One 1983 2.0 13 2008-11-01 2010-06-14
Keith Mansfield Action World 1980 0.1 4 2008-11-01 2010-06-15
Sauveur Mallia Automation 2 1981 0.0 0 2008-11-01 Never
Sauveur Mallia Cool & Easy 1997 0.0 0 2008-11-01 Never
Anthony Mawer Guitar Break 1977 0.1 11 2008-11-15 2009-02-07
Midas Touch Medium Rare 1977 0.0 0 2008-11-15 Never
Midas Touch Choice Morsels 1978 0.0 0 2008-11-15 Never
various Impact And Action 1967 1.0 17 2008-11-15 2009-03-01
various Scenesetters, Fanfares And Punctuations 1970 0.0 0 2008-11-15 Never
Sauveur Mallia Cosmosynthetic vol. 1 0 0.0 0 2008-12-09 Never
Cecil Leuter & Georges Teperino TV Music 101 0 0.1 9 2009-03-05 2009-02-03
Cecil Leuter & Georges Teperino TV Music 102 0 0.0 13 2009-03-05 2009-02-03
Cecil Leuter & Georges Teperino TV Music 103 0 0.0 12 2009-03-05 2009-02-03
Cecil Leuter Dramatique Désastre 1970 0.0 0 2009-03-05 Never
Roger Roger & Nino Nardini Animals' Christmas 0 5.0 15 2009-03-05 2009-06-16
Roland Bocquet Robot Rose 1982 0.0 0 2009-03-05 Never
Teddy Lasry Modern Way 1979 0.0 1 2009-03-05 2009-03-05
Tonio Rubio Rhythms 1973 1.0 1 2009-03-05 2009-03-18
Vladimir Cosma & Michel Bernholc Musique Dramatique et Nostalgique 1974 0.0 0 2009-03-05 Never
various Animals, Children 1976 1.0 4 2009-03-05 2009-05-28
David Bell & Mladen Franko Comic Cuts Volume 2 0 0.0 0 2009-04-05 Never
various Comic Cuts Volume 3 0 0.0 0 2009-04-05 Never
Glen Somers & The Brandenburg Pop Symphony Orchestra Programme Prod. Volume 2 0 0.0 0 2009-04-07 Never
Jacques Siroul Midway 1975 0.0 0 2009-04-07 Never
Janko Nilovic Jouets Musicaux 1974 0.0 2 2009-04-07 2009-03-28
Jean Claudric Génériquement Votre 0 0.0 0 2009-04-07 Never
Martin Wulms Rumba Tamba 0 0.0 0 2009-04-07 Never
various Keyboard Plus & Modern Melody 1973 0.0 0 2009-04-07 Never
various The New Sounds 1973 0.0 0 2009-04-07 Never
Alan Hawkshaw & Dave Gold Move With The Times 1973 0.0 0 2009-05-09 Never
Andy Clark Synthesis 2 1980 0.0 1 2009-05-09 2009-05-05
Brian Bennett & Alan Hawkshaw Synthesis 1974 0.0 0 2009-05-09 Never
David Lindup & Alan Parker The Rhythm of Modern Life 1972 0.0 0 2009-05-09 Never
Don Harper, Li De La Russe & Nikki St. George Electrosonic 1972 0.0 0 2009-05-09 Never
Eric Peters Electromusic 1972 0.0 0 2009-05-09 Never
Keith Mansfield Big Business & Wind of Change 1973 0.0 0 2009-05-09 Never
Keith Mansfield & John Cameron Voices In Harmony 1973 0.0 0 2009-05-09 Never
KPM Series Life Is For Living 1972 0.0 0 2009-05-09 Never
KPM Series Counterpoint in Rhythm 1973 1.1 4 2009-05-09 2009-06-23
KPM Series Daybreak 1973 0.0 0 2009-05-09 Never
KPM Series Fusion 1973 0.0 0 2009-05-09 Never
KPM Series Look On The Bright Side 1973 0.0 0 2009-05-09 Never
KPM Series The Human Touch 1973 0.0 0 2009-05-09 Never
KPM Series The Trendsetters 1973 0.0 0 2009-05-09 Never
KPM Series Gathering Crowds 1974 0.0 0 2009-05-09 Never
KPM Series Happy Hearts 1974 0.0 0 2009-05-09 Never
KPM Series Industrial Panorama 1974 0.0 0 2009-05-09 Never
KPM Series Soft Horizons 1974 0.0 0 2009-05-09 Never
Nachum Heiman Percussion Workshop 1972 0.0 0 2009-05-09 Never
Tony Kinsey & Pete Winslow Summer Songbirds 1973 0.0 4 2009-05-09 2010-04-02
various Dance Date 0 0.0 0 2009-05-09 Never
various Scene in Manhattan 0 0.0 0 2009-05-09 Never
various Start The Day Right 0 0.0 0 2009-05-09 Never
Alan Hawkshaw Terrestrial Journey 1978 1.1 12 2009-06-17 2009-09-21
Basil Kirchin, Jack Nathan & Nigel Shipway Wildlife 1968 0.0 1 2009-06-17 2009-06-15
Brian Bennett, Cliff Hall & Steve Gray Happy Days 0 0.0 0 2009-06-17 Never
Brian Wade & Barry Upton Ultra Vision 1984 0.0 0 2009-06-17 Never
Bruton Series Speed Fever 1978 0.0 1 2009-06-17 2009-06-15
Bruton Series Thrills And Spills 1983 0.0 1 2009-06-17 2018-07-21
Bruton Series Good Morning America! 1984 0.0 0 2009-06-17 Never
Bruton Series Musical Interludes 1987 0.0 0 2009-06-17 Never
Bruton Series Hydropower (Hot Donuts) 0 0.0 0 2009-06-17 Never
Bruton Series Progress 0 0.0 1 2009-06-17 2009-06-15
Francis Monkman & Paul Hart Dynamism 1980 0.0 0 2009-06-17 Never
Francis Monkman Futurama 1979 0.2 0 2009-06-17 Never
Janko Nilovic, Jerry Mengo & Richard Morand Black Jack Party 0 0.0 1 2009-06-17 2009-06-16
John Cameron & Louis Clarke Breakout 1980 0.0 1 2009-06-17 2009-06-16
Keith Mansfield & Johnny Pearson Impressive Scenes 0 0.0 1 2009-06-17 2009-06-16
Mark Shreeve Oracle 1986 0.0 1 2009-06-17 2009-06-16
Max Harris & Johnny Pearson Soap Opera 0 0.0 1 2009-06-17 2009-06-16
Mike Moran & Ray Russell City Limits 1981 0.0 26 2009-06-17 2009-06-03
Quadriga Series Q1 0 0.0 1 2009-06-17 2009-06-17
Quadriga Series Q2 0 0.0 0 2009-06-17 Never
Quadriga Series Q3 0 0.0 0 2009-06-17 Never
various Dimensions in Sound 1976 0.0 0 2009-06-17 Never
various High Tension 0 0.0 0 2009-06-17 Never
various Menace 0 0.0 0 2009-06-17 Never
Anthony King Lost Star. Memo 1978 0.0 2 2009-07-01 2009-06-25
Etienne Cap & Karel Krautgartner Big Band Europhon ELP 556 0 0.0 0 2009-07-19 Never
Keith Roberts & Dave Gold Bold As Brass 1982 0.0 0 2009-07-19 Never
Orchester Helmuth Brandenburg Here's A Train 1974 0.0 2 2009-07-19 2009-06-29
The Music Factory Scoop 1975 0.0 0 2009-07-19 Never
The Rainbow Orchestra Wonderland Of Sound 1974 0.0 1 2009-07-19 2009-06-22
Ulrich Sommerlatte Orchestra Europhon ELP 542 0 0.0 0 2009-07-19 Never
Wolfgang Schlüter Combo Hangover 1977 0.0 0 2009-07-19 Never
Geoff Bastow Music To Varnish Owls By 1975 0.0 1 2009-08-05 2009-07-31
Geoff Bastow Flavour Of The Month 1977 0.0 0 2009-08-05 Never
Jürgen Franke Get Across 1975 0.0 0 2009-08-05 Never
Lee Mason Lee Mason And His Orchestra 1971 0.0 0 2009-08-05 Never
Midas Touch Earth Shaker 1976 0.0 1 2009-08-05 2009-08-02
Midas Touch Industrial 1978 0.0 0 2009-08-05 Never
Panther Point Blank 1978 0.0 9 2009-08-05 2009-08-03
Peter Dennis Orchestra Zenith 1972 0.0 7 2009-08-05 2009-08-03
Pierre Raymonde And Bugs Bower Erotic Aerobics 1982 0.0 11 2009-08-05 2009-08-03
Roland Kovac Rhythm On The Rocks 1970 0.0 0 2009-08-05 Never
The Group Ensemble Dawn Of Man 1980 0.0 0 2009-08-05 Never
Toni Campo Prime Cuts 1976 0.0 0 2009-08-05 Never
various Drums On Phasing & Electronic Sounds 1973 1.0 5 2009-08-05 2009-10-25
various Invitation From Incognito Five 1975 0.0 0 2009-08-05 Never
Roland Kovac Gulliver 1974 0.0 0 2009-09-01 Never
The Advisory Circle Other Channels 2008 0.0 0 2009-09-01 Never
The Electro Keyboard Orchestra Electro Keyboard Orchestra 1975 0.0 0 2009-09-01 Never
various Stylissimo 1973 0.1 0 2009-09-01 Never
various Tokyo Mobil Music 1982 0.0 0 2009-09-01 Never
various Tension 1983 0.0 8 2009-09-01 2009-08-21
Anthony Mawer & Philip Lane Outdoor Life 1975 0.0 0 2009-10-01 Never
Astral Sounds Melodious Thunk 1982 0.0 0 2009-10-01 Never
Basil Kirchin, John Coleman & Jack Nathan Don't Lose Your Cool 1967 0.0 2 2009-10-01 2009-09-22
David Perian & Alberto Baldan Happy And Crazy Music 0 0.0 0 2009-10-01 Never
Edrich Siebert Silver Band 1976 0.0 0 2009-10-01 Never
Francisco Semprun & Michel Christodoulidès Espaces Dynamiques 1979 1.0 2 2009-10-01 2012-08-19
KPM Series Friends And Lovers 1975 0.0 0 2009-10-01 Never
KPM Series Impact 1975 0.0 0 2009-10-01 Never
KPM Series Industry Vol. 2 1975 0.0 0 2009-10-01 Never
KPM Series Rock Spectrum 1975 1.0 3 2009-10-01 2009-11-01
KPM Series Caricature 1976 0.0 0 2009-10-01 Never
KPM Series Love's Theme 1976 0.0 0 2009-10-01 Never
KPM Series Solid Gold 1976 0.0 0 2009-10-01 Never
KPM Series Tender Emotions 1976 0.0 0 2009-10-01 Never
Maurice Vander Chess 1976 1.1 1 2009-10-01 2009-09-29
Pete Winslow Loony Tunes 1975 0.0 0 2009-10-01 Never
René Roussel Rubriques 1980 1.0 2 2009-10-01 2009-10-10
various Hypothèse 1979 0.0 0 2009-10-01 Never
Alan Hawkshaw & Alan Parker Black Pearl 1972 0.0 0 2009-11-01 Never
Alan Hawkshaw The Road Forward 1977 1.2 2 2009-11-01 2012-09-07
Alan Hawkshaw, Brian Bennett & Dave Lawson Music Machine 1981 0.0 0 2009-11-01 Never
Barry Stoller Formula 1972 1.2 4 2009-11-01 2012-09-16
Daphne Oram Oramics 2007 0.0 0 2009-11-01 Never
De Wolfe Series Driving Force 1967 0.0 0 2009-11-01 Never
De Wolfe Series March Trident 1970 0.0 0 2009-11-01 Never
De Wolfe Series Double Or Quits 1971 0.0 0 2009-11-01 Never
De Wolfe Series Buttercup Jones 1972 3.0 3 2009-11-01 2012-09-07
De Wolfe Series Hogan, The Hawk & Dirty John Crown 1972 1.0 1 2009-11-01 2012-01-05
De Wolfe Series Pulse Of Power 1972 0.0 0 2009-11-01 Never
De Wolfe Series Heavy Truckin' 1973 0.0 0 2009-11-01 Never
De Wolfe Series Metropolis 1973 0.0 0 2009-11-01 Never
De Wolfe Series World Power 1973 0.0 0 2009-11-01 Never
Jack Trombey, Keith Papworth & Reg Tisley Consortium 1972 0.0 0 2009-11-01 Never
Jacques Lejeune Fantasmes Ou L'Histoire De Blanche-Neige 1970 0.0 0 2009-11-01 Never
Johnny Hawksworth Industria-Go-Go 1970 0.0 1 2009-11-01 2009-10-27
Monty Python Monty Python's Flying Circus - The Infamous TV Soundtrack 2009 6.0 18 2009-11-01 2010-01-04
P. Willsher & K. Chesher Electroshake 1968 0.0 0 2009-11-01 Never
Paul Reno & Simon Haseley Portfolio 1972 0.0 0 2009-11-01 Never
Peter Reno Big City Story 1968 0.0 0 2009-11-01 Never
Peter Reno Colours 1969 0.0 1 2009-11-01 2009-10-19
Piero Umiliani Performed By The Soundwork-Shoppers. Discomusic 1978 1.0 3 2009-11-01 2010-01-04
Pierre Arvay Images Symphoniques 1979 0.0 0 2009-11-01 Never
Reg Tilsley Tilsley Orchestral No. 2 1967 0.0 0 2009-11-01 Never
Reg Tilsley Flutonium 1970 0.0 0 2009-11-01 Never
Reg Tilsley Tilsley Orchestral No. 7, Soft Touch 1970 0.0 0 2009-11-01 Never
Reg Tilsley Tilsley Orchestral No. 8 1970 0.1 0 2009-11-01 Never
Reg Tilsley Tilsley Orchestral No. 9 1970 0.0 0 2009-11-01 Never
Reg Tilsley Tilsley Orchestral No. 10 1972 0.0 0 2009-11-01 Never
The London Studio Group TV Suite 1969 0.0 1 2009-11-01 2009-10-20
The Studio Ensemble Sweetmeat 1969 0.0 0 2009-11-01 Never
Willsher, Chesher & Hawksworth Electroshake No 2 1969 0.0 0 2009-11-01 Never
John Baker The Tapes Volume 1. BBC Radiophonics 1963-1974 1974 3.0 29 2009-12-19 2010-03-15
Henri Roger Images 1978 0.0 0 2010-01-12 Never
Janko Nilovic Rythmes Contemporains 1974 0.0 0 2010-01-12 Never
Oronzo De Filippi Meccanizzazione 1969 3.0 19 2010-01-13 2010-03-09
Ariel Kalma Interfrequence 1979 0.0 3 2010-02-27 2010-01-29
Bernard Estardy & Alain Poinsot Electronics 1975 4.0 1 2010-02-27 2012-11-19
Duncan Lamont & John Hawkins Four Seasons. Country Life 1978 0.0 0 2010-02-27 Never
Eric Framond Puzzle 0 0.0 0 2010-02-27 Never
Hilario Sanchez Vibraphonie 0 0.0 0 2010-02-27 Never
Jacques Thollot Watch Devil Go 1975 0.0 1 2010-02-27 2010-02-08
Philippe Besombes La Guerre Des Animaux 1982 0.0 5 2010-02-27 2009-12-26
Piero Umiliani Genti E Paesi Del Mondo 1975 0.0 0 2010-02-27 Never
Piero Umiliani Guerre Et Destructions I 0 0.0 11 2010-02-27 2010-02-17
Piero Umiliani Guerre Et Destructions II 0 0.0 0 2010-02-27 Never
Pierre Dutour Top Fiction Vol. 1 0 0.0 0 2010-02-27 Never
Pierre Dutour Top Fiction Vol. 2 0 1.0 2 2010-02-27 2010-04-02
Pierre-Alain Dahan & Pierre Dutour Dramascope 0 0.0 0 2010-02-27 Never
Pierre-Alain Dahan & Pierre Dutour Grand Air 0 0.0 1 2010-02-27 2010-02-22
Raymond Guiot Scarlatti Sounds 1968 0.0 0 2010-02-27 Never
Raymond Guiot Neo-Classiques Vol.2 0 1.0 1 2010-02-27 2012-08-20
Raymont Guiot Info-Actualités 1974 0.0 0 2010-02-27 Never
Sylvano Santorio Pop Guitar Sketches N°2 0 1.0 4 2010-02-27 2011-04-21
various Maxi-Music Vol. 2 1980 0.0 0 2010-02-27 Never
Bruton Series Undergroove 1980 0.0 0 2010-02-27 Never
Bruton Series Jingles Vol.14 1982 0.0 1 2010-02-27 2010-02-23
various Variety One Maxi Music 1985 0.0 0 2010-02-27 Never
Dave Lawson & John Cameron Current Affairs 1981 0.0 5 2010-04-12 2010-03-30
Klaus Weiss Open Space Motion - Underscores 1981 0.0 0 2010-04-12 Never
Klaus Weiss Into The Wind 1985 0.0 0 2010-04-12 Never
Mike Moran Keytronics 1978 1.0 2 2010-04-12 2012-08-23
various Street Pictures 1978 0.0 0 2010-04-12 Never
Andre Popp & Group Thirty Orchestra Popp Around The World 1968 0.1 0 2010-05-01 Never
De Wolfe Series Lunar Probe 0 0.0 1 2010-05-01 2010-04-26
Eric Framond Univers 2000 1979 0.0 0 2010-05-01 Never
Jerry Mengo Easy Music 1975 0.0 4 2010-05-01 2010-04-23
Montparnasse 2000 Series More Creative Pop 1979 0.1 1 2010-05-01 2010-04-26
Willy Lee Musique Pour... 0 0.0 0 2010-05-01 Never
John Saunders Slipstream 1978 0.0 0 2010-05-14 Never
Klaus Weiss Sound Music Album 18 1979 0.0 0 2010-05-14 Never
various Marathon Life 1983 3.2 16 2010-05-14 2010-07-03
various Small Group Pop 0 0.0 0 2010-05-14 Never
Fabio Fabor & Antonio Arena Superman 0 1.1 1 2010-07-26 2014-11-28
Gerhard Trede Montage 0 0.0 1 2010-07-27 2010-07-27
Jean-Michel Hervé Town 0 0.0 0 2010-07-27 Never
Jean-Dominique Converset & Frank Galance Man Power 0 0.0 0 2010-07-27 Never
Joel Vandroogenbroeck However 0 0.0 0 2010-07-27 Never
John Epping Dream Flow 0 0.0 0 2010-07-27 Never
John Fiddy Suite In Oil And Steel 0 0.0 0 2010-07-27 Never
Laszlo Bencker, John Epping & Gregor F. Narholz Robot Couture, Underscores 1 0 0.0 1 2010-07-29 2010-07-29
Mike Vickers Electronic Music 0 0.0 0 2010-07-30 Never
Ralph Lundsten & Wynand Ott Aspects Of Nature, Fantasia 0 0.0 0 2010-08-02 Never
Rhodos Industrial, Activity 0 0.0 0 2010-08-02 Never
Rick Baker Themes 0 0.0 0 2010-08-02 Never
Robert Hall Productions Series RH 220-221 - Production Music 0 0.0 0 2010-08-02 Never
Robert Hall Productions Series RH 234-235 - Production Music 0 0.1 0 2010-08-02 Never
Roger Webb Sound Waves 0 0.0 0 2010-08-02 Never
Ted Atking News Flash 0 0.0 0 2010-08-05 Never
The Advisory Circle Mind How You Go 2005 2.0 3 2010-08-05 2010-10-04
Thomas Clausen Telegame, UFO, Images 0 1.0 2 2010-08-05 2010-08-05
Tony Hymas The Age Of Discovery 0 0.0 0 2010-08-05 Never
various Animals And Children 0 0.0 0 2010-08-06 Never
various Fusion 0 0.0 0 2010-08-06 Never
various Pastoral, Romantic 0 0.0 0 2010-08-06 Never
various Science World 0 0.0 0 2010-08-06 Never
various Sea Atmosphere, Scenic 0 0.0 0 2010-08-06 Never
various Video-Tech 3 0 0.1 0 2010-08-06 Never
Wolfgang Käfer & Peter Vanderlohren Prestige Themes 0 1.0 1 2010-08-06 2015-04-12
Wolfgang Städele Spectrum 0 0.0 0 2010-08-06 Never
Zoe De Sousa, Ron Aspery & Alan Hawkshaw Nature Study Vol.2 0 0.0 0 2010-08-06 Never
Alan Feanch T.V. Scoop 0 0.0 0 2010-08-07 Never
Astral Sounds Red Kite 0 0.0 0 2010-08-07 Never
Atmosphere Music Library Industry; Tension 0 0.0 0 2010-08-07 Never
Axel Simone Focus 0 0.0 0 2010-08-07 Never
Axel Simone Tour De Force 0 0.0 0 2010-08-07 Never
Brian Morris, David Barnett & Doug Wood New Horizons 0 0.0 0 2010-08-07 Never
Bruce Mitchell Future Motion 0 0.0 0 2010-08-07 Never
Christian Chevalier & Alan Feanch Light Breeze 0 0.0 0 2010-08-07 Never
Claude Larson Dramatic Impact 0 0.0 0 2010-08-07 Never
Claude Larson Synchrosonic Patterns 0 0.0 0 2010-08-07 Never
Claude Perraudin Mutation 24 0 0.0 0 2010-08-07 Never
Colin Towns Drama 0 0.0 0 2010-08-07 Never
Dave Hewson Novatrax 017. Dynamic, Energetic and Powerful 0 0.0 0 2010-08-07 Never
Dave Hewson Zaptrax 0 0.0 0 2010-08-07 Never
Don Voegeli Oscillations 1975 0.0 0 2010-08-07 Never
Don Voegeli Instant Production Music Volume 18 - Fine 1980 0.0 0 2010-08-07 Never
Roland Kovac Desiree 0 0.0 0 2010-08-07 Never
Amedeo Tommasi Tecnologia E Computer 0 0.0 0 2010-08-16 Never
Anne Dudley Sound Stage 27, Platinum Status 0 1.0 1 2010-08-16 2011-10-05
Anthony Hobson Silicon Valley 0 0.0 0 2010-08-16 Never
Bent Myggen Versatility 0 0.0 0 2010-08-16 Never
Do It Yourself Orchestra Jogging 1980 0.0 1 2010-08-18 2010-08-17
James Clarke Nature Study Vol.1 0 0.0 0 2010-08-18 Never
Jeff Newmann Automotion 2 0 1.0 1 2010-08-19 2012-08-19
John Tender & Mladen Franko Children Pets And Clowns 0 0.0 0 2010-08-19 Never
John Tender Fantasyland Vol.2 0 0.0 0 2010-08-19 Never
Robert Hall Productions Series RH 232-233 - Production Music 0 0.0 0 2010-08-24 Never
various Electric Lemonade 0 0.0 0 2010-08-26 Never
Jean-Michel Hervé Safari 0 0.0 0 2010-08-26 Never
Alan Feanch & Michel Gonet Times Resonance 0 0.0 0 2010-09-29 Never
various Atmospheric - Sea, Water 0 0.0 0 2010-10-14 Never
Claude Larson Digital Patterns 0 0.0 0 2010-11-09 Never
Gareth John The Synthesiser Album 0 0.1 1 2010-11-11 2010-11-11
James Asher Commerce 0 0.0 0 2010-11-11 Never
Jean-Louis Ducchi Blue Prism 0 0.0 0 2010-11-11 Never
Joël Fajerman & Jan Yrssen Racines Synthetiques 0 0.1 0 2010-11-11 Never
Johanna D'armangac The Art Of Synergy 0 0.0 0 2010-12-02 Never
Cecil Wary Pop Incidence 0 0.0 0 2011-01-31 Never
Arsen Gedik Dreamland 0 0.1 0 2011-03-24 Never
Christian Chevallier Noëls D'hier Et De Demain 0 0.0 0 2011-03-25 Never
Don Voegeli Four Notes In Search Of A Tune 0 0.0 0 2011-03-25 Never
Frederick Rousseau Overview 0 0.0 0 2011-03-28 Never
Giampiero Boneschi & Mitridate Caratteristici 0 0.0 0 2011-03-28 Never
Gilles-Luc Laurent Minimal Plus 1987 0.0 0 2011-03-28 Never
Jean-Pierre Decerf & Jean-Pierre Auffredo Moments 0 0.1 0 2011-03-28 Never
John Cameron Agressive Advertising 0 0.0 0 2011-03-28 Never
Marco Persichetti Il Tempo, La Memoria E Lei 0 0.0 0 2011-03-28 Never
Robert Viger Ways 0 0.0 0 2011-03-28 Never
various Jingles 2 0 0.0 0 2011-03-28 Never
various Mechanisation 0 0.0 0 2011-03-28 Never
Wolfgang Städele Energy 0 1.0 4 2011-03-28 2011-06-01
Belbury Poly The Willows 2004 1.0 1 2011-04-29 2012-08-19
Belbury Poly Farmers Angle 2010 0.0 0 2011-04-29 Never
Pierre Arvay Illustrations No. 2 1964 0.0 0 2011-05-03 Never
Pierre Arvay Illustrations No. 9 1970 0.0 0 2011-05-03 Never
Pierre Arvay Cross Through Yesterday And Present Day 1973 0.0 0 2011-05-03 Never
Pierre Arvay Orchestration 1973 0.0 0 2011-05-03 Never
Pierre Arvay Empty Horizons 1974 0.0 0 2011-05-03 Never
Pierre Arvay Resonances Party N° 1 0 0.0 0 2011-05-03 Never
Ronald Marquisee Electrobeds Vol.1 1971 0.0 0 2011-05-03 Never
Adrian Wagner Instincts 1977 0.1 0 2011-06-02 Never
Bruno Nicolai April Orchestra Présente RCA Sound Vol. 2 1976 0.0 0 2011-06-03 Never
DJ Yogurt & Koyas Chill Out Sound Effect Collection 2010 0.0 0 2011-06-03 Never
Ennio Morricone April Orchestra Présente RCA Sound Vol. 3 1976 0.0 0 2011-06-03 Never
Paul Hart Futurism 1981 0.0 0 2011-06-07 Never
Roger Roger Sports Plein Air 0 0.0 0 2011-06-07 Never
Yasuaki Shimizu Music For Commercials 1987 0.0 0 2011-06-09 Never
Michel Magne Éléments No.2 - L'eau 1980 0.0 1 2011-06-30 2018-02-08
Roger Roger & Nino Nardini Informatic 2000 1982 0.0 0 2011-09-16 Never
The Advisory Circle As The Crow Flies 2011 0.0 0 2011-09-16 Never
various Video-Tech 1 0 0.0 0 2011-09-19 Never
Caravelli & Patrick Vasori Claviers Electroniques 0 0.0 0 2011-09-28 Never
Joël Vandroogenbroeck Video Games & Data Movements 1987 0.0 0 2011-09-30 Never
Claude Larson Climax 0 0.0 0 2011-11-30 Never
Claude Larson Scenes And Images, Developing Underlays Vol.2 0 0.0 0 2011-11-30 Never
Don Voegeli Oscillations 5. Non-Electronic Electronic Music 1977 1.0 1 2011-11-30 2011-12-18
Harry Forbes New Technology Vol.3 0 0.0 0 2011-11-30 Never
Monica Beale Music For Micros 0 0.0 0 2011-11-30 Never
Tom Elliot Space Electronics 0 2.0 2 2011-11-30 2011-12-20
A. Frydman & M. Cannone Aurore 1978 2.0 3 2012-01-03 2012-01-28
Alan Feanch Pianos Électriques 1975 0.0 0 2012-01-03 Never
Bruno Spoerri & Reto Weber The Sound Of The UFOs 1978 0.0 0 2012-01-05 Never
Programa Sintesis Digital 1983 0.0 0 2012-01-09 Never
Georges Rodi Spaciology 1984 0.0 0 2012-02-28 Never
Belbury Poly The Belbury Tales 2012 3.0 14 2012-04-24 2012-10-16
Jean-Pierre Decerf Reincarnation 1979 0.0 0 2012-04-25 Never
Christian Poulet Evasion 1978 0.0 0 2012-08-20 Never
various TV Sound and Image. British TV, Film and Library Composers 1955-78 1978 2.0 6 2012-09-17 2012-10-03
Marco Melchiori & A. Riccardo Luciani Aspetti Della Natura 0 0.0 0 2012-12-15 Never
Two Steps From Hell SkyWorld 2012 2.0 4 2012-12-29 2013-06-05
Dwight Mikkelsen Counterpoints 0 1.0 2 2013-03-05 2013-05-10
Roberto Coccia & Gioacchino Rispoli Strumentali. R. - Acquarii 0 1.0 3 2013-12-19 2014-01-17
various Doctor Who Magazine № 167 1990 0.0 0 2013-12-25 Never
various Музыка Из Архивов Белорусского Радио 0 3.0 20 2014-01-08 2014-07-22
Roger Webb Primetime. Contempo 0 1.0 4 2014-04-19 2014-04-29
Listening Center Cycles. Other Phenomena 2014 0.1 2 2014-11-20 2014-12-02
Il Guardiano Del Faro Amore Grande Amore Libero 1975 1.0 1 2014-12-04 2015-04-11
Jean Bouchéty Biology 0 0.0 0 2014-12-04 Never
Steve Gray Vacations 1980 1.0 2 2014-12-24 2015-01-16
various Eighties Pop 2011 4.0 24 2015-04-07 2015-04-18
Daniel Holter & Matt Smith Urban Pop 2011 0.0 1 2015-04-07 2017-03-25
various Urban Pop 2 2013 0.0 0 2015-04-07 Never
Daniel Holter & Matt Smith Dream Pop 2011 3.0 16 2015-04-07 2015-05-21
Daniel Holter & Matt Smith Dream Pop 2 2011 2.0 19 2015-04-07 2015-05-21
Daniel Holter & Matt Smith Eighties Pop 2 2011 4.1 14 2015-04-07 2015-05-19
Latrudi Teleobbiettivo 2008 2.0 3 2015-05-07 2015-08-06
Jim Blake Cheeze XCD004 2008 1.0 3 2015-09-15 2015-10-01
Benjamin Cohen & Mam Houari Poupée Synthétique 0 1.0 5 2015-09-19 2015-11-07
Reliable Source Music Electro Swing 2013 3.0 9 2015-09-30 2015-11-10
Matt Norman Simply Dramedy 2015 1.0 1 2015-10-13 2015-11-09
Takeshi Furukawa & Matthew St. Laurent Forgotten Dreams 2014 1.0 0 2015-10-13 Never
Dave Hewson Dimensions 2 2015 3.0 5 2015-10-14 2015-10-19
Andy Clark A Clearer Vision 2011 2.0 4 2015-10-18 2016-04-21
Paul Reeves Success Stories 2013 0.0 0 2015-10-18 Never
Paul Reeves Commercial Bites 2014 1.0 0 2015-10-18 Never
various Vive La France 2012 1.0 1 2015-10-18 2015-11-27
Glyn M. Owen The Fizz Factor 2012 5.1 28 2015-11-06 2015-12-25
Jay Price New Horizons 2 2013 2.0 14 2015-11-06 2015-11-29
Jay Price Little Delights 2013 4.0 29 2015-11-06 2015-12-16
various Outlook Sunny 2011 1.0 3 2015-11-18 2015-12-24
Alexander S. Gray The Sound Explorers 2011 2.0 3 2015-11-18 2015-12-24
Paul Reeves Oddities 2012 1.0 1 2015-11-18 2015-12-23
various Pop Corn 2012 1.0 0 2015-11-23 Never
Philip Hochstrate Le Voyage de la Vie 2013 0.0 0 2015-11-23 Never
Matt Norman Science & Discovery 2013 2.0 1 2015-11-23 2016-01-04
various Live Life Happy 2014 4.0 19 2015-12-05 2016-04-15
Simon Rhodes Orchestral Fantasia 2013 1.0 2 2015-12-26 2016-04-13
Ted B. Barnes, Alistair B. H. Friend Circus 2013 0.0 0 2015-12-27 Never
Ted Barnes, Ali Friend Acoustic and Quirky 2 2013 1.0 3 2015-12-27 2016-04-10
Patrick T. Hawes Classical Evolutions 2013 1.0 5 2015-12-30 2016-04-18
Tom Garrad-Cole Bright Future 2 2014 8.0 31 2015-12-30 2016-04-14
Tom Garrad-Cole, John-Paul Jones Bright Times 2014 1.0 2 2015-12-30 2016-03-26
Tom Howe, Matthew J. Robertson, Mike Reed Inspiring Indie 2013 2.0 5 2015-12-30 2016-03-28
Tom Howe, Mike Reed Light Bright and Playful 2013 1.0 2 2015-12-30 2016-04-13
Alexander S. Gray, Tarquin Boyesen Sunshine Sounds 2015 1.0 3 2015-12-30 2016-04-14
Thomas Garrad-Cole, Paul Reeves Here and Now 2013 2.0 5 2015-12-30 2016-05-04
Tom Garrad-Cole Bright Future 2013 3.0 10 2015-12-30 2016-04-10
Paul Reeves Quirky Vintage 2015 2.0 2 2015-12-30 2016-04-21
various WOM 58 Irresistible 2013 0.0 0 2016-03-16 Never
Alan Moorhouse The Big Beat Volume 2 1970 3.0 11 2016-04-15 2016-04-21
various WOMG 23 This Is Electronic 2015 7.0 4 2016-04-17 2016-05-31
various Space, Science & Discovery 2013 0.0 0 2016-05-11 Never
Christopher Deighton, Jonathan B. Buchanan Inspire. Create. Innovate 2016 1.0 0 2016-05-14 Never
Dave Hewson, Michael Bede Tourle TSH 094 Duality 0 3.0 3 2016-05-29 2016-08-01
Jan J. Cyrka Super Catchy Hooky 2016 5.0 7 2016-09-18 2016-10-28
various Holiday Celebration 2015 3.0 5 2016-09-18 2016-10-29
various Christmas Nostalgia 2015 0.0 0 2016-09-18 Never
Brian Burrows Toytronica 2015 2.0 14 2016-09-22 2016-10-11
David Walter Think Happy 2016 4.0 14 2016-10-14 2017-03-24
various Distinctive Quirky Drama 2016 0.1 1 2016-10-14 2016-11-02
Peter Mowry Family Vacation 2015 0.0 0 2016-10-14 Never
various Inspired Thinking 2015 2.0 17 2016-10-14 2016-11-24
Matthew Moore Underscoring The Positive 2016 1.0 9 2016-10-19 2016-11-30
Matthew Swinnerton, Marc Sylvan See The Light 2016 1.0 12 2016-10-19 2017-03-24
Peter Mowry Naturally Happy 2015 4.0 20 2016-10-22 2016-12-08
Roger Dexter Another Day On TV 2015 6.0 22 2016-10-26 2016-12-13
Simon Jones, Francesco Menegat, Alessandro Ciani Geek Beats 2016 1.0 3 2016-10-27 2017-03-24
Ken Lewis, Scott Dente Smiles And Sunshine Volume 3 2015 7.0 11 2016-10-27 2016-11-30
Bruce Fingers, Billie Ray Fingers Electro Symphonic 2016 0.0 0 2016-10-27 Never
Bruce Fingers, Billie Ray Fingers Electronic Drama 2 2016 0.0 0 2016-10-27 Never
Thomas Bergersen, Nick Phoenix Empire 2015 1.0 3 2016-10-27 2016-11-27
Ben Wiseman, Kenneth Cook Unusually Sunny 2016 4.0 11 2016-10-27 2017-01-11
Oliver Vessey The Life Scientific 2016 3.0 60 2016-10-31 2020-04-19
Bruce Fingers, Billie Ray Fingers Indie Pop 6 2016 0.1 1 2016-11-02 2016-11-14
Dylan Rippon Thinking Global 2014 1.0 19 2016-11-22 2016-11-28
Ken Lewis, Julian Dente Forward Progress 2016 9.0 17 2016-11-23 2017-03-25
Julian Dente Lift Up Vol.2 2014 3.0 12 2016-11-29 2016-12-13
Kyle Newmaster Leisure Suite 2015 4.0 15 2016-11-29 2017-01-19
Julian Dente, David Cleveland, Blair Masters Light & Natural Vol.2 2015 1.0 4 2016-11-29 2016-12-21
Julian Dente Smile Plates 2015 0.0 0 2016-12-02 Never
Julian Dente Sunshine Kidz 2015 0.0 0 2016-12-02 Never
various Under Attack 2016 2.0 0 2016-12-02 Never
various Under Our Feet 2016 1.0 0 2016-12-02 Never
various Innovation 2013 2.0 0 2016-12-23 Never
Julian Dente Lonely Leftovers 2016 2.0 13 2016-12-31 2017-01-29
Ken Lewis, Scott Dente, Bill Whittington Sharing A Soda 2016 2.0 2 2017-01-03 2017-01-29
Vasco, Marc F. Teitler The Magic Garden 2016 4.0 19 2017-01-04 2017-03-25
Bruce Fingers, Billie Ray Fingers Rising Pop 2016 2.0 3 2017-01-05 2017-01-29
Ken Lewis, Scott Dente Astronaut Fare 2014 1.0 9 2017-01-15 2017-01-13
various Bananappeal 2016 3.0 11 2017-01-16 2017-01-19
Scott Dente, Ken Lewis, Bill Whittington Casual Picnic 2014 2.0 7 2017-01-17 2017-01-16
Billy Whittington, Ken Lewis, Scott Dente, Jim Gray Cello A La Carte 2016 0.0 0 2017-01-17 Never
Christopher Lewis Hand Drawn And Happy 2011 2.0 9 2017-01-17 2017-01-29
Scott Dente, Ken Lewis Food Fetish 2014 3.0 3 2017-01-21 2017-02-18
Scott Dente, Ken Lewis Forward Progress vol. 2 2016 11.0 13 2017-01-21 2017-03-24
Scott Dente, Ken Lewis Frozen Foods 2014 0.0 0 2017-01-21 Never
Ken Lewis, Scott Dente Kibble's Bits 2 2000 4.0 3 2017-01-21 2017-02-16
Scott Dente, Ken Lewis, Julian Dente Lift Up 2016 3.0 8 2017-01-21 2017-05-05
Ken Lewis, Scott Dente, Julian Dente Light & Natural 2016 1.0 1 2017-01-21 2017-01-21
Scott Dente, Ken Lewis Lightwave 2016 0.0 1 2017-01-21 2017-01-21
Scott Dente, Ken Lewis Party Platter 2014 0.0 0 2017-01-21 Never
Ken Lewis, Scott Dente, Matt Stanfield, Julian Dente Smiles & Sunshine 2016 4.0 11 2017-01-22 2017-01-26
Scott Dente, Ken Lewis String Beat Salad 2014 0.0 0 2017-01-22 Never
Ken Lewis, Scott Dente Sunny Side Up Vol.2 2011 1.0 0 2017-01-22 Never
Ken Lewis, Scott Dente Sunny Side Up 2014 0.0 0 2017-01-22 Never
Ken Lewis, Scott Dente Tea Time 2014 0.0 0 2017-01-22 Never
Timothy Oliver Alpha Echo 2010 9.0 71 2017-01-23 2017-03-25
various Toddler Tales 2016 4.0 13 2017-01-25 2017-02-18
various Wholesome Christmas 2012 0.0 0 2017-01-25 Never
Simon Van Brussel, Daniel Benjamin Dream Pop 2014 6.1 12 2017-02-19 2017-02-19
Giacomo Trivelli Beats - Stay Positive 2015 3.0 3 2017-02-19 2017-03-01
Danny J. Grace, Sebastian Calisto Uplift 2016 9.0 14 2017-03-17 2017-03-17
Samuel R. C. Sutton Utopic 2017 8.0 82 2017-07-01 2017-12-06
Vasco, Marc F. Teitler Taking The Pizz 2017 0.0 0 2017-09-18 Never
Richard A. Harvey Kingdoms and Dynasties 2017 0.0 0 2017-09-18 Never
Andy Clark Scatterbeats 2017 5.0 34 2017-10-06 2018-01-26
Matthew Moore Underscoring The Positive 2 2017 0.0 5 2017-10-06 2017-10-06
Andrew Murray & Emily Taylor Feelgood Pop 2.0 2017 0.0 0 2017-10-07 Never
Benjamin MacDougall Organic Designs 2017 3.0 8 2017-10-07 2018-01-25
Barclay Black & Bertram White Sunny Side Up Vol 2 2017 1.0 5 2017-10-07 2017-10-13
Benjamin MacDougall Life Stories 2016 2.0 4 2017-10-07 2017-10-22
Bill Connor Positively Pizzicato 2017 0.0 0 2017-10-07 Never
various Dreams 2017 0.0 0 2017-10-07 Never
various Amourata 2017 1.0 3 2017-10-07 2018-02-10
Alexander Lamy The Ambient Piano 2017 2.0 5 2017-10-07 2018-01-26
various Minimal Moments 2017 1.0 8 2017-10-08 2017-10-08
Dr. Steven Trip, Dave Richard Bassett Sugar Time 2017 7.0 23 2017-10-11 2018-04-09
Dave Hewson, Paul Lennon A Simple Beauty 1 2017 0.0 4 2017-10-11 2017-10-11
Eelco van Zanten & Mickey Smid Electrolympics 2016 4.0 17 2017-10-13 2017-11-25
Scott Dente, Ken Lewis Brain Food 2016 7.0 23 2017-10-13 2017-11-11
Bruce Fingers, Billie Ray Fingers Post Classical 2017 0.0 0 2017-10-13 Never
Scott Dente, Ken Lewis Plucky & Peculiar 2016 4.0 9 2017-10-14 2018-01-07
Jeremy Birchall Quirky Orchestral 2017 2.0 19 2017-10-14 2018-04-10
various Big Openings 2016 2.0 5 2017-10-14 2018-01-08
Philip Guyler, Taylor Pure And Simple 2016 1.0 2 2017-10-14 2018-01-09
James Copperthwaite We Are Connected 2017 0.0 1 2017-10-14 2017-10-13
Jimmy Kaleth, Peter Ludlam Sunshine And Cupcakes 2017 0.0 0 2017-10-14 Never
various Think Create 2016 11.0 22 2017-10-30 2018-01-09
Paul Reeves & Jay Price The Swing Street Scratch Band 2017 7.0 27 2017-11-01 2018-03-11
Robert H. P. White Gigantic 2017 9.0 68 2017-11-01 2018-04-13
Bruce Fingers, Billie Ray Fingers Carefree 2 2017 4.0 18 2017-11-07 2018-04-13
Robert J. Foster The Heart of Innovation 2017 5.0 48 2017-11-07 2018-02-07
Thomas Greenberg Something Simple Uplift 2017 4.0 2 2017-12-30 2018-04-13
Paul Reeves The Mirror of Life 2017 0.0 0 2017-12-30 Never
various Орёл И Решка 2013 53.3 69 2018-02-04 2018-02-17
various Springtime in Paris French Cafe and Gypsy Jazz Bistro Favorites from France 2016 4.0 7 2018-02-06 2018-02-18
Richard Myhill The Time Machine 1 1987 0.0 0 2018-02-08 Never
Armand Frydman Fusion 1981 1.0 9 2018-02-09 2018-02-15
Bruce Fingers, Billie Ray Fingers Adventure 2 2018 0.0 0 2018-02-13 Never
Emily Taylor Kids Christmas 2017 1.0 1 2018-02-13 2018-02-15
Bruce Fingers, Billie Ray Fingers Playboy Saga 2017 0.0 1 2018-02-13 2018-02-13
Jan Cyrka Indie Rock 0 4.0 11 2018-02-23 2018-04-07
Richard Myhill Out Front 1985 0.0 1 2018-02-23 2018-02-23
Richard Myhill Don’t Talk - Dance 1986 0.0 1 2018-02-23 2018-02-23
Oliver Vessey Electro Organic 2018 4.0 31 2018-03-20 2020-04-21
Jay Price Be Happy 2 2018 7.0 21 2018-08-02 2018-11-16
Brian Bennett Fantasia 1980 4.0 18 2018-12-11 2019-03-12
Richard Myhill Light And Bright 2018 5.0 10 2019-02-16 2019-02-16
Bernard Estardy Fragments D'une Empreinte Magnétique 2018 6.0 9 2019-03-28 2019-10-11
Bernard Estardy Pianos et Orgues 1970 2.0 4 2019-03-30 2019-03-30
Bernard Estardy Claviers Vol.2 1976 2.0 8 2019-03-30 2019-03-30
Bernard Estardy April Orchestra Vol. 41 1982 0.0 2 2019-03-30 2019-03-30
Bernard Estardy Space Oddities 1982 1.0 0 2019-03-30 Never
Bernard Estardy Pianos 1970 1.0 0 2019-03-30 Never
James Wrigley Indie Pop 2017 4.0 9 2019-03-31 2019-03-31
various Cheap N Sleazy 2016 0.0 1 2019-03-31 2019-03-31
Emily Taylor Cheap And Christmassy 2017 0.0 0 2019-04-01 Never
Max Concors Power of Innovation 2017 8.0 13 2019-04-01 2019-04-13
various Rhythm And Intensity 2017 1.0 7 2019-04-01 2019-04-01
Bryan Douglas Arata, Stuart Elliot Rowe Tis The Season 2017 1.0 1 2019-04-01 2019-04-01
various Action Time 1994 0.0 0 2019-04-01 Never
Frank Pels Science & Technology 1 2012 4.0 9 2019-04-02 2019-05-06
Frank Pels Epictronica 1 2013 0.0 8 2019-04-02 2019-04-02
F. Olla & M. Wisth Future Pop 2015 1.0 1 2019-04-06 2019-04-01
Oliver Vessey Future Technology 2016 6.0 39 2019-04-07 2020-04-21
Sauveur Mallia Electro Pop 2018 2.0 2 2019-04-07 2019-09-27
Christopher Lewis Uplifting Happiness 2016 8.0 28 2019-04-07 2019-05-19
Bernard Estardy Claviers 2018 0.1 5 2019-04-07 2019-05-18
Michel Gonet Phasing News Volume 1 2018 0.0 4 2019-04-08 2019-04-08
Michel Gonet Phasing News Volume 2 2018 0.0 0 2019-04-08 Never
Pierre Dutour Top Fiction 2018 3.0 10 2019-04-11 2019-10-05
Dylan Rippon Inspirational 2012 2.0 10 2019-04-12 2019-04-12
Raymond Guiot Info-Actualités 1974 0.0 3 2019-04-12 2019-04-11
Raymond Guiot Flute + Clavecin 1970 0.0 6 2019-04-12 2019-04-12
Hervé Roy French Pop 1970 7.0 14 2019-04-12 2019-10-11
Slim Pezin Percussions Modernes Volume 2 2018 2.0 9 2019-04-12 2019-04-28
various Musique En Vrac 1971 3.0 4 2019-04-12 2019-04-12
Stax, Nick Eugene Kozuch Human Stories. Inspiring Narratives 2018 2.0 5 2019-04-12 2019-10-04
Freja Nyberg Tropical Flavours 2018 7.0 13 2019-04-12 2019-10-05
Angus MacRae Modern Piano 2018 4.0 13 2019-04-12 2019-10-05
various Dance Pop 2018 1.0 3 2019-04-13 2019-06-15
Jean Michel Jarre Radiophonie Vol. 9 2017 0.0 1 2019-04-13 2019-04-13
various Thinking Global Vol II 2018 0.1 2 2019-04-13 2019-04-13
various Colourful String Quartets 2018 1.0 3 2019-04-13 2019-06-15
Emily Taylor Nature Discovered 2018 0.0 1 2019-04-13 2019-04-13
Nicholas C. Hodges Supernatural Synths 2018 8.0 29 2019-05-27 2019-09-28
Tomas J. Greenhalf, Michael G. Monaghan, Garo Nahoulakian, Bea Parks Art House Cinema 2019 10.0 41 2019-05-27 2019-11-20
various Desert Driftin’ 2018 0.0 1 2019-06-07 2019-06-07
Benjamin Garden Feels Like Summer 2018 5.0 19 2019-06-07 2019-11-17
Bruce Fingers, Billie Ray Fingers Glory 2018 9.0 27 2019-06-08 2019-11-16
Philippe Monthaye Modern Kids Cues 2018 2.0 3 2019-06-08 2019-10-05
Marvin Daley, Stephen Green Global Creatives 2018 2.0 5 2019-06-27 2019-11-20
various Carry On Quirky 2015 9.0 12 2019-07-19 2019-11-30
various Quirky Berserky 2018 4.0 50 2019-07-20 2019-11-30
various Uplifting Ambient Pop 2018 2.0 28 2019-07-20 2019-11-28
Pete Glenister, Gary Tibbs Aspirational Rock 2018 5.0 27 2019-07-20 2019-11-30
various Sonic Revolutions 2018 3.0 82 2019-07-25 2019-11-30
various Supernatural Synths 2018 10.0 30 2019-07-28 2019-11-30
various The Beauty Of Movement 2018 7.1 46 2019-07-29 2019-11-30
Alexius Tschallener, Dominik Johnson Minimal Acoustic 2017 6.0 118 2019-07-30 2019-11-30
various Maxi-Music Vol. 3 1980 3.0 9 2019-07-30 2019-07-30
Alto Rowan Happy Day Instrumentals 2019 3.0 26 2019-07-30 2019-10-06
various Kids Create 2019 0.0 0 2019-08-05 Never
Dave Pelman Techno Pop Vol. 2 2017 1.0 23 2019-09-14 2019-09-14
Dave Bethell Newsbytes 2010 0.0 0 2019-09-29 Never
Julio Tavarez Synth Pop Dreams 2017 4.0 12 2019-10-07 2019-12-04
various 3 Scoops Electro 2019 1.0 17 2019-10-07 2019-11-16
various Sugar Pop 2016 5.0 10 2019-10-09 2019-10-09
various Summer Pop 2016 3.0 13 2019-10-12 2019-11-30
various Uplift 2019 5.0 21 2019-11-15 2019-11-30
Alex Bass Minimal Electro 2014 6.0 10 2019-12-01 2020-01-13
Emmanuel Geoffroy Microcosmos 2015 0.1 2 2019-12-01 2020-01-13
Ken Brian Lewis, Scott Dente, Matt Stanfield Future Kidz 2016 4.0 1 2019-12-01 2019-12-01
Sylvain Ott Video Games 0 0.0 0 2019-12-01 Never
various Kid's Tech 2019 3.0 5 2019-12-01 2019-12-04
various Future Tech 2019 4.0 9 2019-12-27 2020-06-07
Jonathan B. Buchanan Invented Memories 2019 0.0 0 2019-12-27 Never
Jeremy N. Abbott, Vasco I Am Machine 2019 0.0 1 2019-12-27 2019-12-27
Glyn M. Owen Fizz Pop 2019 2.0 2 2019-12-27 2019-12-27
Paul Reeves Politics and Ambition 2020 0.0 0 2020-04-15 Never
Alistair Hawkins Raw Analogue 2020 0.0 0 2020-04-16 Never
various Positive Futures 2019 0.0 16 2020-04-16 2020-04-21
various Neutral Tension 2019 0.0 0 2020-04-16 Never
Oliver Vessey The Life Scientific 2 2019 3.0 46 2020-04-20 2020-07-22
Oliver Vessey Artificial Intelligence 2005 0.0 0 2020-04-20 Never
Oliver Vessey Natural Synthesis 2007 0.0 0 2020-04-20 Never
Oliver Vessey Obscura 2001 0.0 3 2020-04-20 2020-04-21
David Lowe BBC Themes 2020 7.0 31 2020-05-09 2021-01-27
Oliver Vessey Obscura 2 2005 0.0 2 2020-05-09 2020-05-09
Kevin MacLeod Video Classica 2015 1.0 2 2020-06-19 2020-07-18
Nicolas Montazaud Jolis Souvenirs 2 2018 0.0 4 2020-07-15 2020-07-15
Beds and Beats Actually Love 2019 0.0 0 2020-11-07 Never
Beds and Beats Acoustic Hygge 2019 0.0 0 2020-11-08 Never
Beds and Beats Back In the Day 2019 1.0 2 2020-11-08 2020-12-22
Beds and Beats Complextro 2019 1.0 2 2020-11-08 2021-02-10
Richard Myhill Around The World in 60 Minutes Part 2 2020 0.0 0 2020-12-01 Never
James H. Hewins, Dylan Parsons Inspiration & Beyond 2020 1.0 14 2020-12-03 2020-12-02
Oliver Vessey Interconnection 2020 0.0 0 2021-01-26 Never
Curtis F. Schwartz America Acoustic 2020 0.0 0 2021-03-25 Never
Kick Out The JAMS! Aulismedia Music Library 2018.02.18 "Space Oddity" © Sergey Mishenev 2003-2021